Ncc Najd — HZAK — position and weather

sailwx.info

Track history (hours):
 
Tides and Currents Weather Stations Pressure Air Temp Water Temp Dewpoint Dewpoint Depression Visibility Wind Speed Wind Dir Waves Ship Positions

Ncc Najd

Last reported at 2016-Dec-05 01:33 UTC. Time now 2016-Dec-11 10:07 UTC.
Position N 01°58' E 102°15'.

Length 183 m; draft 7.8 m.

Type: Tanker. MMSI: 403579000.

Date/timePositionNaut miles runAvg speedWind from/ knotsBaromVisibWave heightAir tempDewpointWater temp
2016-Dec-05 01:33N 01°58' E 102°15'1212.1
2016-Dec-05 00:33N 01°53' E 102°25'1312.4
2016-Dec-04 23:31N 01°48' E 102°37'1312.9
2016-Dec-04 22:32N 01°43' E 102°49'6112.3
2016-Dec-04 17:33N 01°11' E 103°41'1 0.1
2016-Dec-04 00:33N 01°11' E 103°42'2 1.4
2016-Dec-03 23:13N 01°09' E 103°42'4 5.0
2016-Dec-03 22:23N 01°09' E 103°46'7 7.8
2016-Dec-03 21:33N 01°12' E 103°52'7 7.5
2016-Dec-03 20:33N 01°15' E 103°59'  
2016-Nov-26 10:29N 31°19' E 121°42'1010.3
2016-Nov-26 09:33N 31°24' E 121°32'8 8.1
2016-Nov-26 08:33N 31°30' E 121°25'6 5.8
2016-Nov-26 07:33N 31°34' E 121°20'0 0.1
2016-Nov-26 06:27N 31°34' E 121°20'3 0.1
2016-Nov-25 07:15N 31°35' E 121°17'2 2.2
2016-Nov-25 06:33N 31°34' E 121°19'8 8.1
2016-Nov-25 05:33N 31°29' E 121°26'8 7.9
2016-Nov-25 04:33N 31°24' E 121°33'10 9.6
2016-Nov-25 03:31N 31°19' E 121°44'  
Track history (hours):
 
Tides and Currents Weather Stations Pressure Air Temp Water Temp Dewpoint Dewpoint Depression Visibility Wind Speed Wind Dir Waves Ship Positions

Ncc Najd

Last reported at 2016-Dec-05 01:33 UTC. Time now 2016-Dec-11 10:07 UTC.
Position N 01°58' E 102°15'.

Length 183 m; draft 7.8 m.

Type: Tanker. MMSI: 403579000.

Date/timePositionNaut miles runAvg speedWind from/ knotsBaromVisibWave heightAir tempDewpointWater temp
2016-Dec-05 01:33N 01°58' E 102°15'1212.1
2016-Dec-05 00:33N 01°53' E 102°25'1312.4
2016-Dec-04 23:31N 01°48' E 102°37'1312.9
2016-Dec-04 22:32N 01°43' E 102°49'6112.3
2016-Dec-04 17:33N 01°11' E 103°41'1 0.1
2016-Dec-04 00:33N 01°11' E 103°42'2 1.4
2016-Dec-03 23:13N 01°09' E 103°42'4 5.0
2016-Dec-03 22:23N 01°09' E 103°46'7 7.8
2016-Dec-03 21:33N 01°12' E 103°52'7 7.5
2016-Dec-03 20:33N 01°15' E 103°59'  
2016-Nov-26 10:29N 31°19' E 121°42'1010.3
2016-Nov-26 09:33N 31°24' E 121°32'8 8.1
2016-Nov-26 08:33N 31°30' E 121°25'6 5.8
2016-Nov-26 07:33N 31°34' E 121°20'0 0.1
2016-Nov-26 06:27N 31°34' E 121°20'3 0.1
2016-Nov-25 07:15N 31°35' E 121°17'2 2.2
2016-Nov-25 06:33N 31°34' E 121°19'8 8.1
2016-Nov-25 05:33N 31°29' E 121°26'8 7.9
2016-Nov-25 04:33N 31°24' E 121°33'10 9.6
2016-Nov-25 03:31N 31°19' E 121°44'  

Dump ship's entire track history